Data for 03/15/2013

Time Sea-Level Adjusted Pressure Absolute Pressure Temperature Relative Humidity Dew Point   
(mb) (inHg) (mb) (inHg) (C) (F) (%) (C) (F)
00:05 1016 30 846 24.98 11.3 52.3 29 -5.9 21.3
00:10 1016 30 846 24.98 11.3 52.3 29 -6.3 20.7
00:15 1017 30.03 846 24.98 11.1 52 30 -5.8 21.6
00:20 1017 30.03 846 24.98 10.4 50.7 36 -4.1 24.7
00:25 1017 30.03 846 24.98 9.4 48.9 36 -4.8 23.4
00:30 1017 30.03 846 24.98 9.3 48.7 34 -5.6 22
00:35 1017 30.03 846 24.98 9.6 49.2 33 -6 21.2
00:40 1017 30.03 846 24.98 10.1 50.2 33 -5.6 21.9
00:45 1017 30.03 846 24.98 9.8 49.7 36 -4.4 24
00:50 1017 30.03 846 24.98 9.1 48.4 37 -4.9 23.1
00:55 1017 30.03 846 24.98 9 48.2 35 -5.8 21.6
01:00 1017 30.03 846 24.98 9.5 49.1 33 -6.1 21
01:05 1017 30.03 846 24.98 9.9 49.7 32 -6.2 20.9
01:10 1017 30.03 846 24.98 10.1 50.1 30 -6.8 19.8
01:15 1017 30.03 846 24.98 10.4 50.6 30 -6.3 20.6
01:20 1017 30.03 846 24.98 10.3 50.6 31 -6.2 20.8
01:25 1017 30.03 846 24.98 10.3 50.5 30 -6.4 20.5
01:30 1017 30.03 846 24.98 10.3 50.5 31 -6.1 21
01:35 1017 30.03 846 24.98 10.1 50.1 33 -5.6 21.9
01:40 1017 30.03 846 24.98 9.7 49.4 34 -5.5 22.1
01:45 1017 30.03 846 24.98 9.5 49.1 35 -5.3 22.5
01:50 1017 30.03 846 24.98 9.4 48.9 35 -5.4 22.3
01:55 1017 30.03 846 24.98 9.5 49.1 35 -5.2 22.6
02:00 1017 30.03 846 24.98 9.5 49.1 35 -5 22.9
02:05 1017 30.03 846 24.98 9.5 49 36 -4.9 23.1
02:10 1017 30.03 846 24.98 9.5 49.1 36 -4.7 23.5
02:15 1017 30.03 846 24.98 9.5 49 36 -4.9 23.3
02:20 1017 30.03 846 24.98 9.6 49.2 36 -4.8 23.4
02:25 1017 30.03 846 24.98 9.5 49 36 -4.7 23.6
02:30 1017 30.03 846 24.98 9.5 49.1 35 -5.1 22.9
02:35 1017 30.03 846 24.98 9.7 49.5 36 -4.8 23.4
02:40 1017 30.03 846 24.98 9.7 49.4 35 -5 23.1
02:45 1017 30.03 846 24.98 9.7 49.5 35 -4.8 23.3
02:50 1017 30.03 846 24.98 9.6 49.3 36 -4.7 23.5
02:55 1017 30.03 846 24.98 9.4 48.9 37 -4.5 24
03:00 1017 30.03 846 24.98 9.4 48.9 36 -4.8 23.4
03:05 1017 30.03 846 24.98 9.4 48.8 36 -5 23
03:10 1017 30.03 846 24.98 9.4 48.9 36 -4.9 23.1
03:15 1017 30.03 846 24.98 9.1 48.4 40 -3.8 25.1
03:20 1017 30.03 846 24.98 8.5 47.4 39 -4.5 24
03:25 1017 30.03 846 24.98 8.5 47.3 40 -4.3 24.2
03:30 1017 30.03 846 24.98 8.4 47 40 -4.3 24.2
03:35 1017 30.03 846 24.98 8.3 46.9 41 -4.2 24.5
03:40 1017 30.03 846 24.98 8 46.4 41 -4.4 24.1
03:45 1017 30.03 846 24.98 7.9 46.3 42 -4.2 24.5
03:50 1017 30.03 846 24.98 8 46.3 40 -4.9 23.2
03:55 1017 30.03 846 24.98 8.2 46.8 38 -5.1 22.8
04:00 1017 30.03 846 24.98 8.3 47 40 -4.5 24
04:05 1017 30.03 846 24.98 7.9 46.2 39 -5.2 22.6
04:10 1017 30.03 846 24.98 7.8 46.1 41 -4.7 23.6
04:15 1017 30.03 846 24.98 8 46.4 34 -7 19.5
04:20 1017 30.03 846 24.98 8.6 47.4 33 -6.7 20
04:25 1017 30.03 846 24.98 8.7 47.6 34 -6.5 20.4
04:30 1017 30.03 846 24.98 8.4 47.1 37 -5.5 22.2
04:35 1017 30.03 846 24.98 8 46.4 36 -6.1 21
04:40 1017 30.03 846 24.98 8 46.4 36 -6.3 20.6
04:45 1017 30.03 846 24.98 8.2 46.8 34 -6.8 19.8
04:50 1017 30.03 846 24.98 8.5 47.2 33 -7 19.4
04:55 1017 30.03 846 24.98 8.7 47.6 31 -7.3 18.8
05:00 1017 30.03 846 24.98 8.8 47.8 32 -6.8 19.8
05:05 1017 30.03 846 24.98 8.8 47.8 31 -7.5 18.6
05:10 1017 30.03 846 24.98 8.9 48 30 -7.6 18.4
05:15 1017 30.03 846 24.98 9 48.3 29 -7.9 17.7
05:20 1017 30.03 846 24.98 9.2 48.5 29 -8.1 17.4
05:25 1017 30.03 846 24.98 9.3 48.7 30 -7.3 18.8
05:30 1017 30.03 846 24.98 8.8 47.8 31 -7.4 18.8
05:35 1017 30.03 846 24.98 8.7 47.7 31 -7.7 18.1
05:40 1017 30.03 846 24.98 8.8 47.9 31 -7.4 18.7
05:45 1017 30.03 846 24.98 8.8 47.8 31 -7.5 18.4
05:50 1017 30.03 846 24.98 8.8 47.9 31 -7.4 18.8
05:55 1017 30.03 846 24.98 8.7 47.6 32 -7.3 18.9
06:00 1017 30.03 846 24.98 8.7 47.7 31 -7.3 18.9
06:05 1017 30.03 846 24.98 8.5 47.4 34 -6.4 20.5
06:10 1017 30.03 846 24.98 8.2 46.7 33 -7.3 18.9
06:15 1017 30.03 846 24.98 8.3 46.9 31 -7.7 18.1
06:20 1017 30.03 846 24.98 8.7 47.6 30 -7.7 18.1
06:25 1017 30.03 846 24.98 8.8 47.8 31 -7.3 18.8
06:30 1017 30.03 846 24.98 8.6 47.5 31 -7.7 18.2
06:35 1017 30.03 846 24.98 8.7 47.6 31 -7.4 18.7
06:40 1017 30.03 847 25.01 8.4 47.1 32 -7.2 19
06:45 1017 30.03 847 25.01 8.2 46.8 33 -7.1 19.2
06:50 1017 30.03 847 25.01 8.1 46.5 33 -7.4 18.6
06:55 1017 30.03 847 25.01 8.1 46.6 32 -7.5 18.6
07:00 1018 30.06 847 25.01 8.2 46.7 32 -7.4 18.7
07:05 1018 30.06 847 25.01 8.2 46.7 33 -7 19.4
07:10 1018 30.06 847 25.01 7.9 46.2 34 -7 19.3
07:15 1018 30.06 847 25.01 7.7 45.9 34 -7.1 19.3
07:20 1018 30.06 847 25.01 7.7 45.9 33 -7.4 18.7
07:25 1018 30.06 847 25.01 7.8 46 34 -7.2 19
07:30 1018 30.06 847 25.01 7.7 45.9 33 -7.4 18.7
07:35 1018 30.06 847 25.01 7.8 46 33 -7.4 18.7
07:40 1018 30.06 847 25.01 7.8 46 34 -7.3 18.9
07:45 1018 30.06 847 25.01 7.7 45.9 34 -7.2 19
07:50 1018 30.06 847 25.01 7.8 46 34 -7.3 18.9
07:55 1018 30.06 847 25.01 7.8 46 34 -7.2 19
08:00 1018 30.06 847 25.01 7.8 46 34 -7 19.3
08:05 1018 30.06 847 25.01 7.7 45.9 35 -6.9 19.5
08:10 1018 30.06 847 25.01 7.7 45.9 35 -6.9 19.5
08:15 1018 30.06 847 25.01 7.7 45.9 35 -6.9 19.6
08:20 1018 30.06 847 25.01 7.8 46 34 -7 19.3
08:25 1018 30.06 847 25.01 7.9 46.1 35 -6.8 19.8
08:30 1018 30.06 847 25.01 7.9 46.3 35 -6.6 20.1
08:35 1018 30.06 847 25.01 8 46.4 35 -6.5 20.3
08:40 1018 30.06 847 25.01 7.7 45.9 36 -6.4 20.4
08:45 1018 30.06 847 25.01 7.9 46.2 34 -6.9 19.6
08:50 1018 30.06 847 25.01 8.2 46.7 34 -6.9 19.5
08:55 1018 30.06 847 25.01 8.4 47.2 33 -6.8 19.8
09:00 1018 30.06 847 25.01 8.6 47.5 33 -6.9 19.7
09:05 1018 30.06 847 25.01 8.9 47.9 32 -6.8 19.8
09:10 1018 30.06 847 25.01 9.2 48.5 32 -6.8 19.8
09:15 1018 30.06 847 25.01 9.4 48.9 32 -6.5 20.4
09:20 1018 30.06 847 25.01 9.5 49.1 32 -6.5 20.2
09:25 1018 30.06 847 25.01 10 50.1 31 -6.3 20.6
09:30 1018 30.06 847 25.01 10.8 51.4 30 -6.1 21
09:35 1018 30.06 847 25.01 11.3 52.4 29 -5.9 21.5
09:40 1018 30.06 847 25.01 11.8 53.3 29 -5.6 21.8
09:45 1018 30.06 847 25.01 12.1 53.8 28 -5.7 21.8
09:50 1018 30.06 847 25.01 12.1 53.7 28 -5.8 21.5
09:55 1018 30.06 847 25.01 12.3 54.2 27 -6.3 20.7
10:00 1018 30.06 847 25.01 12.4 54.3 27 -6.1 21
10:05 1018 30.06 847 25.01 12.6 54.6 28 -5.6 21.9
10:10 1018 30.06 847 25.01 12.8 55.1 27 -5.5 22.1
10:15 1018 30.06 847 25.01 12.9 55.1 28 -5.3 22.4
10:20 1018 30.06 847 25.01 13.1 55.6 27 -5.6 22
10:25 1017 30.03 847 25.01 13.5 56.2 26 -5.8 21.6
10:30 1017 30.03 847 25.01 13.9 56.9 25 -5.7 21.7
10:35 1017 30.03 847 25.01 14 57.3 24 -6 21.2
10:40 1017 30.03 847 25.01 13.8 56.9 24 -6.3 20.6
10:45 1018 30.06 847 25.01 13.8 56.8 26 -5.2 22.7
10:50 1017 30.03 847 25.01 13.7 56.7 27 -4.8 23.4
10:55 1017 30.03 847 25.01 12.6 54.8 30 -4.3 24.2
11:00 1017 30.03 847 25.01 12.1 53.7 30 -4.9 23.2
11:05 1017 30.03 847 25.01 11.6 52.8 31 -4.9 23.2
11:10 1017 30.03 847 25.01 11.7 53.1 28 -6 21.1
11:15 1017 30.03 847 25.01 12.7 54.9 27 -6 21.3
11:20 1017 30.03 847 25.01 12.7 54.9 26 -6.1 20.9
11:25 1017 30.03 847 25.01 12.7 54.8 26 -6.1 21
11:30 1017 30.03 846 24.98 13 55.4 26 -5.8 21.5
11:35 1017 30.03 846 24.98 13.3 55.9 26 -5.9 21.4
11:40 1017 30.03 846 24.98 13.8 56.8 25 -6.1 21.1
11:45 1017 30.03 846 24.98 13.7 56.7 25 -5.7 21.7
11:50 1017 30.03 846 24.98 13.3 56 25 -6.1 21.1
11:55 1017 30.03 846 24.98 13.6 56.6 25 -6.1 21.1
12:00 1017 30.03 846 24.98 13.8 56.9 24 -6.2 20.8
12:05 1017 30.03 846 24.98 13.6 56.5 24 -6.8 19.8
12:10 1017 30.03 846 24.98 14.3 57.7 22 -7 19.5
12:15 1017 30.03 846 24.98 13.9 57.1 23 -6.9 19.6
12:20 1017 30.03 846 24.98 13.9 57 24 -6.3 20.7
12:25 1017 30.03 846 24.98 14.1 57.3 23 -6.6 20.2
12:30 1017 30.03 846 24.98 14.2 57.6 22 -7 19.3
12:35 1017 30.03 846 24.98 14.2 57.5 22 -7.3 18.9
12:40 1017 30.03 846 24.98 14.1 57.4 22 -6.9 19.5
12:45 1017 30.03 846 24.98 14.1 57.3 23 -6.5 20.2
12:50 1017 30.03 846 24.98 14.1 57.3 23 -7 19.5
12:55 1017 30.03 846 24.98 14 57.3 22 -7.3 18.9
13:00 1017 30.03 846 24.98 14.3 57.7 22 -7.3 18.8
13:05 1017 30.03 846 24.98 14.1 57.4 22 -7.3 18.8
13:10 1017 30.03 846 24.98 14.3 57.8 22 -6.8 19.7
13:15 1017 30.03 846 24.98 14.5 58 21 -7.2 19
13:20 1017 30.03 846 24.98 14.5 58.1 21 -7.6 18.3
13:25 1017 30.03 846 24.98 14.4 57.9 21 -7.6 18.3
13:30 1017 30.03 846 24.98 14.4 58 21 -7.7 18.2
13:35 1017 30.03 846 24.98 14.4 57.9 21 -7.9 17.8
13:40 1017 30.03 846 24.98 14.6 58.4 19 -8.5 16.8
13:45 1017 30.03 846 24.98 14.3 57.8 22 -7.1 19.2
13:50 1017 30.03 846 24.98 14.2 57.5 20 -8.6 16.5
13:55 1017 30.03 846 24.98 14.1 57.4 20 -8.6 16.6
14:00 1017 30.03 846 24.98 13.9 57 21 -8.2 17.2
14:05 1017 30.03 846 24.98 14.1 57.3 20 -8.2 17.2
14:10 1017 30.03 846 24.98 14.1 57.4 21 -7.8 18
14:15 1017 30.03 846 24.98 14.1 57.3 21 -8 17.6
14:20 1017 30.03 846 24.98 13.7 56.7 22 -7.5 18.5
14:25 1017 30.03 846 24.98 14.1 57.4 21 -7.7 18.1
14:30 1016 30 846 24.98 13.9 57.1 22 -7.5 18.5
14:35 1016 30 846 24.98 14.3 57.7 22 -7.1 19.1
14:40 1016 30 846 24.98 13.9 57 23 -7.1 19.3
14:45 1016 30 846 24.98 14 57.2 23 -6.8 19.7
14:50 1016 30 846 24.98 14 57.1 22 -7.1 19.2
14:55 1016 30 846 24.98 13.4 56 26 -5.6 21.8
15:00 1016 30 846 24.98 12.8 55 27 -5.9 21.3
15:05 1016 30 846 24.98 12.3 54.1 27 -5.9 21.4
15:10 1016 30 846 24.98 12.6 54.8 27 -6 21.2
15:15 1016 30 846 24.98 12.1 53.8 27 -6.2 20.9
15:20 1016 30 846 24.98 11.9 53.3 28 -5.9 21.3
15:25 1016 30 846 24.98 11.6 52.9 28 -6.1 20.9
15:30 1016 30 846 24.98 11.6 52.9 28 -6 21.1
15:35 1016 30 846 24.98 11.7 53.1 28 -6.3 20.6
15:40 1016 30 846 24.98 11.8 53.3 29 -5.8 21.5
15:45 1016 30 846 24.98 11.9 53.5 28 -6.1 21
15:50 1016 30 846 24.98 11.9 53.3 29 -5.3 22.4
15:55 1016 30 846 24.98 11.4 52.5 30 -5.4 22.4
16:00 1017 30.03 846 24.98 11.7 53 30 -5.5 22.2
16:05 1016 30 846 24.98 11.7 53.1 29 -5.6 21.9
16:10 1016 30 846 24.98 11.9 53.4 29 -5.5 22.1
16:15 1016 30 846 24.98 11.9 53.4 30 -5.2 22.6
16:20 1016 30 846 24.98 11.8 53.2 30 -5.2 22.6
16:25 1016 30 846 24.98 11.8 53.2 30 -5 22.9
16:30 1016 30 846 24.98 11.7 53 30 -5.3 22.5
16:35 1016 30 846 24.98 11.6 52.9 29 -5.6 21.9
16:40 1016 30 846 24.98 11.6 52.8 30 -5.5 22
16:45 1016 30 846 24.98 11.3 52.4 31 -5.3 22.5
16:50 1017 30.03 846 24.98 10.9 51.7 31 -5.4 22.4
16:55 1017 30.03 846 24.98 11 51.7 32 -5.2 22.7
17:00 1017 30.03 846 24.98 10.9 51.7 32 -5.1 22.8
17:05 1017 30.03 846 24.98 10.8 51.4 32 -5 22.9
17:10 1017 30.03 846 24.98 10.7 51.3 32 -5.1 22.8
17:15 1017 30.03 846 24.98 10.7 51.3 32 -5.1 22.9
17:20 1017 30.03 846 24.98 10.6 51 33 -5 23
17:25 1017 30.03 846 24.98 10.1 50.2 33 -5.3 22.5
17:30 1017 30.03 846 24.98 10 49.9 33 -5.5 22.2
17:35 1017 30.03 846 24.98 9.9 49.7 33 -5.5 22
17:40 1017 30.03 846 24.98 9.8 49.6 33 -5.6 21.9
17:45 1017 30.03 846 24.98 9.8 49.7 34 -5.4 22.2
17:50 1017 30.03 846 24.98 9.7 49.5 34 -5.5 22.1
17:55 1017 30.03 846 24.98 9.6 49.3 33 -5.8 21.6
18:00 1017 30.03 846 24.98 9.5 49.2 33 -5.7 21.7
18:05 1017 30.03 846 24.98 9.4 48.9 34 -5.7 21.8
18:10 1017 30.03 846 24.98 9.3 48.7 34 -5.9 21.5
18:15 1017 30.03 846 24.98 9.2 48.6 34 -5.9 21.3
18:20 1017 30.03 846 24.98 9.2 48.5 34 -5.9 21.4
18:25 1017 30.03 846 24.98 9.1 48.3 34 -5.8 21.6
18:30 1017 30.03 846 24.98 9 48.1 34 -5.8 21.5
18:35 1017 30.03 846 24.98 8.9 48.1 35 -5.8 21.5
18:40 1017 30.03 847 25.01 8.9 47.9 35 -5.7 21.8
18:45 1017 30.03 847 25.01 8.8 47.9 36 -5.6 21.9
18:50 1017 30.03 847 25.01 8.8 47.8 35 -5.7 21.7
18:55 1017 30.03 847 25.01 8.7 47.7 36 -5.4 22.3
19:00 1017 30.03 847 25.01 8.2 46.7 45 -3.1 26.4
19:05 1018 30.06 847 25.01 6.9 44.4 47 -3.6 25.5
19:10 1018 30.06 847 25.01 6.6 43.9 45 -4.6 23.8
19:15 1018 30.06 847 25.01 6.9 44.5 43 -4.9 23.2
19:20 1018 30.06 847 25.01 7.2 44.9 40 -5.4 22.3
19:25 1018 30.06 847 25.01 7.4 45.4 40 -5.2 22.6
19:30 1018 30.06 847 25.01 7.5 45.5 40 -5.2 22.6
19:35 1018 30.06 847 25.01 7.5 45.5 39 -5.5 22.1
19:40 1018 30.06 847 25.01 7.5 45.5 39 -5.6 22
19:45 1018 30.06 847 25.01 7.4 45.3 39 -5.6 21.9
19:50 1018 30.06 847 25.01 7.4 45.2 39 -5.5 22
19:55 1018 30.06 847 25.01 7.2 45 40 -5.5 22.2
20:00 1018 30.06 847 25.01 7.1 44.9 40 -5.6 21.9
20:05 1018 30.06 847 25.01 7.1 44.7 40 -5.5 22.1
20:10 1018 30.06 847 25.01 7 44.6 40 -5.7 21.7
20:15 1018 30.06 847 25.01 7 44.6 40 -5.7 21.8
20:20 1018 30.06 847 25.01 6.9 44.5 41 -5.5 22
20:25 1018 30.06 847 25.01 6.9 44.3 41 -5.5 22
20:30 1018 30.06 847 25.01 6.8 44.2 42 -5.3 22.4
20:35 1018 30.06 847 25.01 6.6 43.8 43 -5.2 22.6
20:40 1018 30.06 847 25.01 6.3 43.3 44 -5.1 22.9
20:45 1018 30.06 847 25.01 6 42.7 45 -5 23.1
20:50 1018 30.06 847 25.01 5.6 42.1 48 -4.6 23.7
20:55 1018 30.06 847 25.01 5.4 41.7 48 -4.8 23.3
21:00 1018 30.06 847 25.01 5.4 41.7 48 -4.7 23.5
21:05 1018 30.06 847 25.01 5.3 41.5 48 -4.8 23.3
21:10 1018 30.06 847 25.01 5.2 41.4 49 -4.6 23.8
21:15 1018 30.06 847 25.01 5.2 41.3 48 -4.9 23.1
21:20 1018 30.06 847 25.01 5.1 41.2 49 -4.8 23.4
21:25 1018 30.06 847 25.01 5.1 41.2 50 -4.5 23.9
21:30 1018 30.06 847 25.01 5 40.9 50 -4.6 23.7
21:35 1018 30.06 847 25.01 4.9 40.8 51 -4.3 24.2
21:40 1018 30.06 847 25.01 4.8 40.7 52 -4.3 24.3
21:45 1018 30.06 847 25.01 4.8 40.6 51 -4.5 24
21:50 1018 30.06 847 25.01 4.7 40.5 52 -4.2 24.5
21:55 1018 30.06 847 25.01 4.5 40.1 53 -4.3 24.3
22:00 1018 30.06 847 25.01 4.4 39.9 53 -4.3 24.2
22:05 1018 30.06 847 25.01 4.4 39.9 53 -4.4 24.1
22:10 1018 30.06 847 25.01 4.3 39.8 53 -4.3 24.3
22:15 1018 30.06 847 25.01 4.2 39.5 54 -4.3 24.3
22:20 1018 30.06 848 25.04 4 39.2 55 -4.3 24.3
22:25 1018 30.06 848 25.04 3.9 39 56 -4 24.7
22:30 1018 30.06 848 25.04 3.7 38.7 56 -4.2 24.4
22:35 1018 30.06 847 25.01 3.7 38.6 57 -4 24.8
22:40 1018 30.06 847 25.01 3.6 38.5 57 -4.2 24.4
22:45 1018 30.06 847 25.01 3.7 38.6 58 -3.8 25.1
22:50 1018 30.06 847 25.01 3.5 38.2 57 -4.3 24.3
22:55 1018 30.06 848 25.04 3.6 38.6 57 -4.1 24.7
23:00 1018 30.06 848 25.04 3.6 38.5 58 -3.8 25.1
23:05 1018 30.06 847 25.01 3.4 38.1 59 -3.9 25
23:10 1018 30.06 847 25.01 3.5 38.3 58 -4.1 24.7
23:15 1018 30.06 847 25.01 3.7 38.7 57 -4.1 24.6
23:20 1018 30.06 847 25.01 3.8 38.9 57 -4 24.8
23:25 1018 30.06 847 25.01 4 39.2 56 -4 24.8
23:30 1018 30.06 847 25.01 4 39.2 56 -3.9 25
23:35 1018 30.06 847 25.01 3.8 38.9 57 -3.8 25.1
23:40 1018 30.06 847 25.01 3.6 38.4 59 -3.8 25.2
23:45 1018 30.06 847 25.01 3.4 38.1 59 -3.9 24.9
23:50 1018 30.06 847 25.01 3.4 38.1 59 -3.9 24.9
23:55 1018 30.06 847 25.01 3.5 38.3 58 -4.1 24.7
24:00 1018 30.06 847 25.01 3.4 38.2 58 -4 24.8